sensor_id;sensor_type;location;lat;lon;timestamp;P1;durP1;ratioP1;P2;durP2;ratioP2
61385;SDS011;47256;18.904;-99.054;2024-03-17T00:01:40;7.07;;;5.00;;
61385;SDS011;47256;18.904;-99.054;2024-03-17T00:04:08;7.13;;;5.20;;
61385;SDS011;47256;18.904;-99.054;2024-03-17T00:06:36;9.38;;;5.55;;
61385;SDS011;47256;18.904;-99.054;2024-03-17T00:09:03;7.90;;;5.30;;
61385;SDS011;47256;18.904;-99.054;2024-03-17T00:11:33;14.88;;;6.78;;
61385;SDS011;47256;18.904;-99.054;2024-03-17T00:14:01;12.68;;;5.68;;
61385;SDS011;47256;18.904;-99.054;2024-03-17T00:16:29;10.00;;;5.82;;
61385;SDS011;47256;18.904;-99.054;2024-03-17T00:18:56;8.60;;;5.47;;
61385;SDS011;47256;18.904;-99.054;2024-03-17T00:21:24;11.65;;;6.35;;
61385;SDS011;47256;18.904;-99.054;2024-03-17T00:23:55;9.02;;;5.50;;
61385;SDS011;47256;18.904;-99.054;2024-03-17T00:26:22;12.02;;;6.20;;
61385;SDS011;47256;18.904;-99.054;2024-03-17T00:28:50;7.53;;;5.82;;
61385;SDS011;47256;18.904;-99.054;2024-03-17T00:31:17;14.57;;;5.55;;
61385;SDS011;47256;18.904;-99.054;2024-03-17T00:33:46;12.35;;;5.43;;
61385;SDS011;47256;18.904;-99.054;2024-03-17T00:36:16;10.23;;;4.85;;
61385;SDS011;47256;18.904;-99.054;2024-03-17T00:38:45;9.35;;;5.07;;
61385;SDS011;47256;18.904;-99.054;2024-03-17T00:41:12;8.77;;;6.03;;
61385;SDS011;47256;18.904;-99.054;2024-03-17T00:43:40;9.63;;;4.97;;
61385;SDS011;47256;18.904;-99.054;2024-03-17T00:46:07;9.45;;;5.55;;
61385;SDS011;47256;18.904;-99.054;2024-03-17T00:48:39;8.55;;;5.03;;
61385;SDS011;47256;18.904;-99.054;2024-03-17T00:51:06;10.80;;;6.45;;
61385;SDS011;47256;18.904;-99.054;2024-03-17T00:53:36;11.18;;;6.15;;
61385;SDS011;47256;18.904;-99.054;2024-03-17T00:56:05;12.52;;;6.40;;
61385;SDS011;47256;18.904;-99.054;2024-03-17T00:58:32;10.18;;;5.95;;
61385;SDS011;47256;18.904;-99.054;2024-03-17T01:01:00;31.15;;;8.73;;
61385;SDS011;47256;18.904;-99.054;2024-03-17T01:03:27;41.13;;;8.75;;
61385;SDS011;47256;18.904;-99.054;2024-03-17T01:05:56;32.97;;;7.95;;
61385;SDS011;47256;18.904;-99.054;2024-03-17T01:08:23;21.98;;;8.80;;
61385;SDS011;47256;18.904;-99.054;2024-03-17T01:10:50;27.05;;;8.93;;
61385;SDS011;47256;18.904;-99.054;2024-03-17T01:13:20;36.67;;;8.43;;
61385;SDS011;47256;18.904;-99.054;2024-03-17T01:15:50;29.90;;;8.30;;
61385;SDS011;47256;18.904;-99.054;2024-03-17T01:18:19;61.88;;;9.23;;
61385;SDS011;47256;18.904;-99.054;2024-03-17T01:20:46;35.00;;;8.18;;
61385;SDS011;47256;18.904;-99.054;2024-03-17T01:23:14;38.95;;;9.45;;
61385;SDS011;47256;18.904;-99.054;2024-03-17T01:25:42;47.33;;;9.15;;
61385;SDS011;47256;18.904;-99.054;2024-03-17T01:28:11;30.58;;;7.32;;
61385;SDS011;47256;18.904;-99.054;2024-03-17T01:30:39;31.17;;;8.23;;
61385;SDS011;47256;18.904;-99.054;2024-03-17T01:33:07;31.00;;;8.82;;
61385;SDS011;47256;18.904;-99.054;2024-03-17T01:35:36;32.53;;;9.38;;
61385;SDS011;47256;18.904;-99.054;2024-03-17T01:38:04;28.42;;;10.68;;
61385;SDS011;47256;18.904;-99.054;2024-03-17T01:40:32;35.75;;;9.55;;
61385;SDS011;47256;18.904;-99.054;2024-03-17T01:43:00;31.45;;;10.52;;
61385;SDS011;47256;18.904;-99.054;2024-03-17T01:45:32;24.08;;;12.20;;
61385;SDS011;47256;18.904;-99.054;2024-03-17T01:48:04;41.10;;;12.68;;
61385;SDS011;47256;18.904;-99.054;2024-03-17T01:50:41;41.00;;;14.73;;
61385;SDS011;47256;18.904;-99.054;2024-03-17T01:53:12;40.20;;;14.65;;
61385;SDS011;47256;18.904;-99.054;2024-03-17T01:55:41;54.97;;;17.48;;
61385;SDS011;47256;18.904;-99.054;2024-03-17T01:58:12;54.95;;;20.23;;
61385;SDS011;47256;18.904;-99.054;2024-03-17T02:00:40;42.58;;;15.57;;
61385;SDS011;47256;18.904;-99.054;2024-03-17T02:03:09;58.70;;;17.52;;
61385;SDS011;47256;18.904;-99.054;2024-03-17T02:05:36;50.33;;;15.88;;
61385;SDS011;47256;18.904;-99.054;2024-03-17T02:08:05;43.25;;;14.90;;
61385;SDS011;47256;18.904;-99.054;2024-03-17T02:10:36;34.35;;;15.32;;
61385;SDS011;47256;18.904;-99.054;2024-03-17T02:13:06;46.97;;;15.93;;
61385;SDS011;47256;18.904;-99.054;2024-03-17T02:15:34;43.00;;;17.67;;
61385;SDS011;47256;18.904;-99.054;2024-03-17T02:18:01;41.75;;;17.67;;
61385;SDS011;47256;18.904;-99.054;2024-03-17T02:20:28;55.22;;;16.63;;
61385;SDS011;47256;18.904;-99.054;2024-03-17T02:23:14;38.63;;;16.30;;
61385;SDS011;47256;18.904;-99.054;2024-03-17T02:25:41;38.78;;;13.98;;
61385;SDS011;47256;18.904;-99.054;2024-03-17T02:28:09;41.42;;;14.60;;
61385;SDS011;47256;18.904;-99.054;2024-03-17T02:30:36;39.67;;;14.68;;
61385;SDS011;47256;18.904;-99.054;2024-03-17T02:33:05;37.03;;;13.90;;
61385;SDS011;47256;18.904;-99.054;2024-03-17T02:35:32;38.60;;;12.57;;
61385;SDS011;47256;18.904;-99.054;2024-03-17T02:38:00;33.45;;;13.50;;
61385;SDS011;47256;18.904;-99.054;2024-03-17T02:40:28;39.08;;;12.25;;
61385;SDS011;47256;18.904;-99.054;2024-03-17T02:42:56;39.40;;;13.32;;
61385;SDS011;47256;18.904;-99.054;2024-03-17T02:45:23;36.35;;;13.27;;
61385;SDS011;47256;18.904;-99.054;2024-03-17T02:47:51;52.92;;;13.32;;
61385;SDS011;47256;18.904;-99.054;2024-03-17T02:50:22;124.72;;;17.63;;
61385;SDS011;47256;18.904;-99.054;2024-03-17T02:52:50;57.53;;;13.10;;
61385;SDS011;47256;18.904;-99.054;2024-03-17T02:55:21;42.42;;;11.75;;
61385;SDS011;47256;18.904;-99.054;2024-03-17T02:57:48;34.10;;;11.27;;
61385;SDS011;47256;18.904;-99.054;2024-03-17T03:00:15;37.97;;;11.73;;
61385;SDS011;47256;18.904;-99.054;2024-03-17T03:02:47;24.20;;;11.02;;
61385;SDS011;47256;18.904;-99.054;2024-03-17T03:05:14;31.23;;;11.32;;
61385;SDS011;47256;18.904;-99.054;2024-03-17T03:07:45;17.75;;;9.15;;
61385;SDS011;47256;18.904;-99.054;2024-03-17T03:10:13;24.27;;;9.48;;
61385;SDS011;47256;18.904;-99.054;2024-03-17T03:12:42;31.20;;;11.00;;
61385;SDS011;47256;18.904;-99.054;2024-03-17T03:15:09;20.80;;;9.35;;
61385;SDS011;47256;18.904;-99.054;2024-03-17T03:17:36;24.90;;;9.30;;
61385;SDS011;47256;18.904;-99.054;2024-03-17T03:20:05;20.15;;;8.82;;
61385;SDS011;47256;18.904;-99.054;2024-03-17T03:22:32;17.38;;;9.30;;
61385;SDS011;47256;18.904;-99.054;2024-03-17T03:25:01;29.13;;;8.52;;
61385;SDS011;47256;18.904;-99.054;2024-03-17T03:27:31;20.27;;;8.05;;
61385;SDS011;47256;18.904;-99.054;2024-03-17T03:30:01;24.80;;;9.05;;
61385;SDS011;47256;18.904;-99.054;2024-03-17T03:32:29;23.45;;;9.32;;
61385;SDS011;47256;18.904;-99.054;2024-03-17T03:34:57;39.03;;;9.38;;
61385;SDS011;47256;18.904;-99.054;2024-03-17T03:37:24;45.92;;;8.95;;
61385;SDS011;47256;18.904;-99.054;2024-03-17T03:39:51;41.78;;;11.02;;
61385;SDS011;47256;18.904;-99.054;2024-03-17T03:42:19;24.42;;;9.43;;
61385;SDS011;47256;18.904;-99.054;2024-03-17T03:44:47;32.10;;;10.15;;
61385;SDS011;47256;18.904;-99.054;2024-03-17T03:47:15;36.40;;;10.80;;
61385;SDS011;47256;18.904;-99.054;2024-03-17T03:49:46;28.75;;;10.75;;
61385;SDS011;47256;18.904;-99.054;2024-03-17T03:52:13;28.67;;;12.23;;
61385;SDS011;47256;18.904;-99.054;2024-03-17T03:54:42;35.53;;;11.07;;
61385;SDS011;47256;18.904;-99.054;2024-03-17T03:57:09;24.13;;;11.13;;
61385;SDS011;47256;18.904;-99.054;2024-03-17T03:59:36;26.70;;;10.38;;
61385;SDS011;47256;18.904;-99.054;2024-03-17T04:02:09;21.80;;;10.63;;
61385;SDS011;47256;18.904;-99.054;2024-03-17T04:04:38;27.95;;;10.45;;
61385;SDS011;47256;18.904;-99.054;2024-03-17T04:07:05;24.02;;;11.23;;
61385;SDS011;47256;18.904;-99.054;2024-03-17T04:09:35;36.17;;;12.90;;
61385;SDS011;47256;18.904;-99.054;2024-03-17T04:12:05;29.13;;;12.98;;
61385;SDS011;47256;18.904;-99.054;2024-03-17T04:14:33;21.20;;;11.93;;
61385;SDS011;47256;18.904;-99.054;2024-03-17T04:17:01;28.38;;;11.70;;
61385;SDS011;47256;18.904;-99.054;2024-03-17T04:19:29;19.70;;;12.15;;
61385;SDS011;47256;18.904;-99.054;2024-03-17T04:21:56;27.35;;;12.70;;
61385;SDS011;47256;18.904;-99.054;2024-03-17T04:24:23;37.47;;;13.18;;
61385;SDS011;47256;18.904;-99.054;2024-03-17T04:26:51;37.95;;;13.38;;
61385;SDS011;47256;18.904;-99.054;2024-03-17T04:29:19;33.35;;;13.25;;
61385;SDS011;47256;18.904;-99.054;2024-03-17T04:31:47;32.97;;;12.50;;
61385;SDS011;47256;18.904;-99.054;2024-03-17T04:34:15;41.13;;;13.70;;
61385;SDS011;47256;18.904;-99.054;2024-03-17T04:36:42;27.65;;;12.80;;
61385;SDS011;47256;18.904;-99.054;2024-03-17T04:39:09;34.22;;;13.45;;
61385;SDS011;47256;18.904;-99.054;2024-03-17T04:41:36;29.25;;;14.50;;
61385;SDS011;47256;18.904;-99.054;2024-03-17T04:44:06;51.00;;;14.32;;
61385;SDS011;47256;18.904;-99.054;2024-03-17T04:46:39;95.65;;;18.08;;
61385;SDS011;47256;18.904;-99.054;2024-03-17T04:49:07;39.10;;;13.70;;
61385;SDS011;47256;18.904;-99.054;2024-03-17T04:51:36;42.03;;;14.85;;
61385;SDS011;47256;18.904;-99.054;2024-03-17T04:54:03;53.72;;;15.55;;
61385;SDS011;47256;18.904;-99.054;2024-03-17T04:56:33;47.83;;;15.52;;
61385;SDS011;47256;18.904;-99.054;2024-03-17T04:59:01;52.88;;;14.52;;
61385;SDS011;47256;18.904;-99.054;2024-03-17T05:01:31;41.50;;;15.45;;
61385;SDS011;47256;18.904;-99.054;2024-03-17T05:04:02;32.40;;;12.98;;
61385;SDS011;47256;18.904;-99.054;2024-03-17T05:06:30;31.20;;;12.18;;
61385;SDS011;47256;18.904;-99.054;2024-03-17T05:08:58;35.75;;;12.20;;
61385;SDS011;47256;18.904;-99.054;2024-03-17T05:11:33;28.27;;;11.52;;
61385;SDS011;47256;18.904;-99.054;2024-03-17T05:14:04;34.55;;;11.18;;
61385;SDS011;47256;18.904;-99.054;2024-03-17T05:16:31;36.95;;;11.13;;
61385;SDS011;47256;18.904;-99.054;2024-03-17T05:18:59;23.20;;;12.63;;
61385;SDS011;47256;18.904;-99.054;2024-03-17T05:21:30;25.73;;;11.32;;
61385;SDS011;47256;18.904;-99.054;2024-03-17T05:24:03;28.10;;;10.85;;
61385;SDS011;47256;18.904;-99.054;2024-03-17T05:26:32;25.83;;;10.90;;
61385;SDS011;47256;18.904;-99.054;2024-03-17T05:28:59;24.90;;;12.23;;
61385;SDS011;47256;18.904;-99.054;2024-03-17T05:31:27;19.70;;;11.68;;
61385;SDS011;47256;18.904;-99.054;2024-03-17T05:33:55;22.63;;;11.50;;
61385;SDS011;47256;18.904;-99.054;2024-03-17T05:36:23;25.38;;;11.93;;
61385;SDS011;47256;18.904;-99.054;2024-03-17T05:38:50;21.02;;;11.38;;
61385;SDS011;47256;18.904;-99.054;2024-03-17T05:41:17;20.55;;;11.48;;
61385;SDS011;47256;18.904;-99.054;2024-03-17T05:43:46;26.65;;;10.27;;
61385;SDS011;47256;18.904;-99.054;2024-03-17T05:46:16;35.97;;;11.68;;
61385;SDS011;47256;18.904;-99.054;2024-03-17T05:48:44;19.95;;;10.65;;
61385;SDS011;47256;18.904;-99.054;2024-03-17T05:51:12;23.60;;;11.52;;
61385;SDS011;47256;18.904;-99.054;2024-03-17T05:53:41;32.92;;;10.80;;
61385;SDS011;47256;18.904;-99.054;2024-03-17T05:56:12;21.20;;;9.45;;
61385;SDS011;47256;18.904;-99.054;2024-03-17T05:58:42;20.00;;;10.07;;
61385;SDS011;47256;18.904;-99.054;2024-03-17T06:01:12;18.02;;;9.48;;
61385;SDS011;47256;18.904;-99.054;2024-03-17T06:03:40;19.75;;;9.93;;
61385;SDS011;47256;18.904;-99.054;2024-03-17T06:06:07;23.13;;;11.50;;
61385;SDS011;47256;18.904;-99.054;2024-03-17T06:08:39;23.38;;;10.18;;
61385;SDS011;47256;18.904;-99.054;2024-03-17T06:11:07;22.27;;;10.75;;
61385;SDS011;47256;18.904;-99.054;2024-03-17T06:13:36;25.65;;;12.48;;
61385;SDS011;47256;18.904;-99.054;2024-03-17T06:16:03;28.55;;;12.38;;
61385;SDS011;47256;18.904;-99.054;2024-03-17T06:18:34;31.35;;;13.10;;
61385;SDS011;47256;18.904;-99.054;2024-03-17T06:21:04;28.55;;;13.80;;
61385;SDS011;47256;18.904;-99.054;2024-03-17T06:23:32;28.80;;;14.63;;
61385;SDS011;47256;18.904;-99.054;2024-03-17T06:26:00;39.70;;;16.42;;
61385;SDS011;47256;18.904;-99.054;2024-03-17T06:28:31;44.80;;;17.23;;
61385;SDS011;47256;18.904;-99.054;2024-03-17T06:30:58;44.65;;;19.20;;
61385;SDS011;47256;18.904;-99.054;2024-03-17T06:33:29;41.50;;;19.60;;
61385;SDS011;47256;18.904;-99.054;2024-03-17T06:35:58;43.92;;;21.13;;
61385;SDS011;47256;18.904;-99.054;2024-03-17T06:38:32;46.97;;;21.73;;
61385;SDS011;47256;18.904;-99.054;2024-03-17T06:40:59;53.30;;;22.42;;
61385;SDS011;47256;18.904;-99.054;2024-03-17T06:43:27;54.90;;;22.27;;
61385;SDS011;47256;18.904;-99.054;2024-03-17T06:45:56;53.25;;;22.13;;
61385;SDS011;47256;18.904;-99.054;2024-03-17T06:48:26;49.03;;;21.20;;
61385;SDS011;47256;18.904;-99.054;2024-03-17T06:50:54;43.65;;;24.40;;
61385;SDS011;47256;18.904;-99.054;2024-03-17T06:53:23;62.90;;;27.85;;
61385;SDS011;47256;18.904;-99.054;2024-03-17T06:55:58;48.78;;;23.90;;
61385;SDS011;47256;18.904;-99.054;2024-03-17T06:58:27;52.72;;;25.35;;
61385;SDS011;47256;18.904;-99.054;2024-03-17T07:00:56;38.60;;;23.42;;
61385;SDS011;47256;18.904;-99.054;2024-03-17T07:03:27;51.33;;;23.08;;
61385;SDS011;47256;18.904;-99.054;2024-03-17T07:05:57;45.38;;;23.20;;
61385;SDS011;47256;18.904;-99.054;2024-03-17T07:08:29;52.58;;;22.13;;
61385;SDS011;47256;18.904;-99.054;2024-03-17T07:11:01;43.85;;;22.42;;
61385;SDS011;47256;18.904;-99.054;2024-03-17T07:13:38;51.92;;;21.52;;
61385;SDS011;47256;18.904;-99.054;2024-03-17T07:16:07;42.10;;;20.13;;
61385;SDS011;47256;18.904;-99.054;2024-03-17T07:18:35;40.47;;;20.23;;
61385;SDS011;47256;18.904;-99.054;2024-03-17T07:21:03;52.97;;;24.08;;
61385;SDS011;47256;18.904;-99.054;2024-03-17T07:23:37;43.92;;;21.48;;
61385;SDS011;47256;18.904;-99.054;2024-03-17T07:26:05;47.15;;;22.92;;
61385;SDS011;47256;18.904;-99.054;2024-03-17T07:28:35;40.05;;;19.63;;
61385;SDS011;47256;18.904;-99.054;2024-03-17T07:31:11;52.65;;;22.13;;
61385;SDS011;47256;18.904;-99.054;2024-03-17T07:33:39;54.30;;;20.48;;
61385;SDS011;47256;18.904;-99.054;2024-03-17T07:36:07;40.70;;;19.65;;
61385;SDS011;47256;18.904;-99.054;2024-03-17T07:38:36;40.65;;;20.27;;
61385;SDS011;47256;18.904;-99.054;2024-03-17T07:41:04;42.88;;;20.60;;
61385;SDS011;47256;18.904;-99.054;2024-03-17T07:43:36;44.42;;;17.90;;
61385;SDS011;47256;18.904;-99.054;2024-03-17T07:48:34;49.20;;;19.45;;
61385;SDS011;47256;18.904;-99.054;2024-03-17T07:51:04;44.40;;;18.58;;
61385;SDS011;47256;18.904;-99.054;2024-03-17T07:53:37;40.33;;;17.88;;
61385;SDS011;47256;18.904;-99.054;2024-03-17T07:58:36;39.80;;;17.98;;
61385;SDS011;47256;18.904;-99.054;2024-03-17T08:01:05;44.05;;;16.95;;
61385;SDS011;47256;18.904;-99.054;2024-03-17T08:03:37;25.35;;;15.98;;
61385;SDS011;47256;18.904;-99.054;2024-03-17T08:06:06;42.65;;;17.60;;
61385;SDS011;47256;18.904;-99.054;2024-03-17T08:08:35;36.80;;;16.40;;
61385;SDS011;47256;18.904;-99.054;2024-03-17T08:11:03;39.50;;;17.45;;
61385;SDS011;47256;18.904;-99.054;2024-03-17T08:13:31;40.42;;;17.50;;
61385;SDS011;47256;18.904;-99.054;2024-03-17T08:16:01;33.15;;;17.10;;
61385;SDS011;47256;18.904;-99.054;2024-03-17T08:18:32;36.92;;;16.92;;
61385;SDS011;47256;18.904;-99.054;2024-03-17T08:21:00;39.95;;;17.00;;
61385;SDS011;47256;18.904;-99.054;2024-03-17T08:23:33;35.50;;;17.17;;
61385;SDS011;47256;18.904;-99.054;2024-03-17T08:26:12;42.40;;;16.90;;
61385;SDS011;47256;18.904;-99.054;2024-03-17T08:28:40;28.17;;;15.05;;
61385;SDS011;47256;18.904;-99.054;2024-03-17T08:31:07;39.25;;;16.42;;
61385;SDS011;47256;18.904;-99.054;2024-03-17T08:33:35;30.92;;;16.73;;
61385;SDS011;47256;18.904;-99.054;2024-03-17T08:36:04;31.75;;;16.42;;
61385;SDS011;47256;18.904;-99.054;2024-03-17T08:38:36;35.28;;;15.82;;
61385;SDS011;47256;18.904;-99.054;2024-03-17T08:41:08;29.55;;;16.05;;
61385;SDS011;47256;18.904;-99.054;2024-03-17T08:43:37;38.35;;;15.43;;
61385;SDS011;47256;18.904;-99.054;2024-03-17T08:46:05;33.03;;;15.40;;
61385;SDS011;47256;18.904;-99.054;2024-03-17T08:48:38;26.88;;;15.13;;
61385;SDS011;47256;18.904;-99.054;2024-03-17T08:51:07;28.17;;;15.25;;
61385;SDS011;47256;18.904;-99.054;2024-03-17T08:53:36;28.15;;;12.52;;
61385;SDS011;47256;18.904;-99.054;2024-03-17T08:56:08;22.08;;;13.82;;
61385;SDS011;47256;18.904;-99.054;2024-03-17T08:58:36;24.48;;;13.73;;
61385;SDS011;47256;18.904;-99.054;2024-03-17T09:01:07;22.85;;;12.85;;
61385;SDS011;47256;18.904;-99.054;2024-03-17T09:03:35;28.17;;;14.02;;
61385;SDS011;47256;18.904;-99.054;2024-03-17T09:06:03;28.80;;;13.93;;
61385;SDS011;47256;18.904;-99.054;2024-03-17T09:08:31;27.27;;;13.48;;
61385;SDS011;47256;18.904;-99.054;2024-03-17T09:10:59;28.73;;;13.63;;
61385;SDS011;47256;18.904;-99.054;2024-03-17T09:13:27;35.53;;;13.32;;
61385;SDS011;47256;18.904;-99.054;2024-03-17T09:18:29;29.20;;;13.30;;
61385;SDS011;47256;18.904;-99.054;2024-03-17T09:23:31;32.15;;;14.10;;
61385;SDS011;47256;18.904;-99.054;2024-03-17T09:26:06;37.42;;;14.23;;
61385;SDS011;47256;18.904;-99.054;2024-03-17T09:28:34;24.23;;;14.60;;
61385;SDS011;47256;18.904;-99.054;2024-03-17T09:31:03;30.00;;;13.88;;
61385;SDS011;47256;18.904;-99.054;2024-03-17T09:33:34;30.52;;;13.23;;
61385;SDS011;47256;18.904;-99.054;2024-03-17T09:36:05;22.08;;;13.27;;
61385;SDS011;47256;18.904;-99.054;2024-03-17T09:38:34;25.40;;;14.05;;
61385;SDS011;47256;18.904;-99.054;2024-03-17T09:41:01;28.98;;;14.23;;
61385;SDS011;47256;18.904;-99.054;2024-03-17T09:43:34;25.35;;;13.48;;
61385;SDS011;47256;18.904;-99.054;2024-03-17T09:46:02;27.92;;;12.73;;
61385;SDS011;47256;18.904;-99.054;2024-03-17T09:48:32;26.73;;;14.02;;
61385;SDS011;47256;18.904;-99.054;2024-03-17T09:51:00;25.58;;;12.85;;
61385;SDS011;47256;18.904;-99.054;2024-03-17T09:53:30;21.77;;;12.35;;
61385;SDS011;47256;18.904;-99.054;2024-03-17T09:56:03;25.92;;;12.55;;
61385;SDS011;47256;18.904;-99.054;2024-03-17T09:58:37;21.48;;;12.40;;
61385;SDS011;47256;18.904;-99.054;2024-03-17T10:01:05;22.02;;;12.40;;
61385;SDS011;47256;18.904;-99.054;2024-03-17T10:06:18;22.60;;;12.77;;
61385;SDS011;47256;18.904;-99.054;2024-03-17T10:08:51;28.02;;;14.30;;
61385;SDS011;47256;18.904;-99.054;2024-03-17T10:11:23;36.58;;;13.82;;
61385;SDS011;47256;18.904;-99.054;2024-03-17T10:16:36;27.75;;;12.05;;
61385;SDS011;47256;18.904;-99.054;2024-03-17T10:21:38;24.67;;;13.85;;
61385;SDS011;47256;18.904;-99.054;2024-03-17T10:24:22;27.60;;;15.23;;
61385;SDS011;47256;18.904;-99.054;2024-03-17T10:26:53;33.67;;;15.63;;
61385;SDS011;47256;18.904;-99.054;2024-03-17T10:29:35;38.75;;;18.52;;
61385;SDS011;47256;18.904;-99.054;2024-03-17T10:32:03;31.48;;;15.77;;
61385;SDS011;47256;18.904;-99.054;2024-03-17T10:34:44;27.55;;;13.68;;
61385;SDS011;47256;18.904;-99.054;2024-03-17T10:37:15;38.72;;;14.98;;
61385;SDS011;47256;18.904;-99.054;2024-03-17T10:39:49;46.08;;;23.67;;
61385;SDS011;47256;18.904;-99.054;2024-03-17T10:42:25;98.22;;;37.45;;
61385;SDS011;47256;18.904;-99.054;2024-03-17T10:45:08;23.67;;;11.85;;
61385;SDS011;47256;18.904;-99.054;2024-03-17T10:47:38;23.65;;;10.40;;
61385;SDS011;47256;18.904;-99.054;2024-03-17T10:50:18;27.70;;;12.00;;
61385;SDS011;47256;18.904;-99.054;2024-03-17T10:52:48;19.98;;;10.93;;
61385;SDS011;47256;18.904;-99.054;2024-03-17T10:55:25;22.63;;;9.65;;
61385;SDS011;47256;18.904;-99.054;2024-03-17T10:57:54;27.48;;;13.05;;
61385;SDS011;47256;18.904;-99.054;2024-03-17T11:00:24;49.03;;;18.95;;
61385;SDS011;47256;18.904;-99.054;2024-03-17T11:02:56;63.92;;;22.83;;
61385;SDS011;47256;18.904;-99.054;2024-03-17T11:05:24;64.63;;;23.63;;
61385;SDS011;47256;18.904;-99.054;2024-03-17T11:08:00;86.57;;;32.03;;
61385;SDS011;47256;18.904;-99.054;2024-03-17T11:10:31;89.88;;;32.20;;
61385;SDS011;47256;18.904;-99.054;2024-03-17T11:13:05;78.47;;;29.35;;
61385;SDS011;47256;18.904;-99.054;2024-03-17T11:15:51;71.43;;;22.00;;
61385;SDS011;47256;18.904;-99.054;2024-03-17T11:23:59;30.92;;;12.63;;
61385;SDS011;47256;18.904;-99.054;2024-03-17T11:26:33;28.73;;;14.15;;
61385;SDS011;47256;18.904;-99.054;2024-03-17T11:29:03;37.20;;;15.65;;
61385;SDS011;47256;18.904;-99.054;2024-03-17T11:31:37;33.42;;;14.25;;
61385;SDS011;47256;18.904;-99.054;2024-03-17T11:37:03;29.95;;;11.23;;
61385;SDS011;47256;18.904;-99.054;2024-03-17T11:39:46;26.63;;;10.50;;
61385;SDS011;47256;18.904;-99.054;2024-03-17T11:42:24;29.23;;;11.55;;
61385;SDS011;47256;18.904;-99.054;2024-03-17T11:45:01;27.42;;;12.43;;
61385;SDS011;47256;18.904;-99.054;2024-03-17T11:47:43;32.65;;;14.50;;
61385;SDS011;47256;18.904;-99.054;2024-03-17T11:50:12;33.90;;;16.00;;
61385;SDS011;47256;18.904;-99.054;2024-03-17T11:52:45;46.05;;;16.00;;
61385;SDS011;47256;18.904;-99.054;2024-03-17T11:55:17;25.23;;;11.55;;
61385;SDS011;47256;18.904;-99.054;2024-03-17T11:57:45;21.52;;;10.52;;
61385;SDS011;47256;18.904;-99.054;2024-03-17T12:00:18;23.83;;;11.35;;
61385;SDS011;47256;18.904;-99.054;2024-03-17T12:05:20;24.15;;;11.40;;
61385;SDS011;47256;18.904;-99.054;2024-03-17T12:07:50;28.35;;;11.23;;
61385;SDS011;47256;18.904;-99.054;2024-03-17T12:10:20;19.70;;;10.27;;
61385;SDS011;47256;18.904;-99.054;2024-03-17T12:12:48;18.13;;;10.20;;
61385;SDS011;47256;18.904;-99.054;2024-03-17T12:15:16;21.02;;;11.05;;
61385;SDS011;47256;18.904;-99.054;2024-03-17T12:17:54;16.50;;;10.02;;
61385;SDS011;47256;18.904;-99.054;2024-03-17T12:20:23;26.45;;;10.48;;
61385;SDS011;47256;18.904;-99.054;2024-03-17T12:22:50;30.42;;;12.30;;
61385;SDS011;47256;18.904;-99.054;2024-03-17T12:25:20;18.73;;;9.90;;
61385;SDS011;47256;18.904;-99.054;2024-03-17T12:27:49;33.20;;;11.93;;
61385;SDS011;47256;18.904;-99.054;2024-03-17T12:30:16;24.88;;;10.15;;
61385;SDS011;47256;18.904;-99.054;2024-03-17T12:32:45;32.85;;;12.13;;
61385;SDS011;47256;18.904;-99.054;2024-03-17T12:35:19;22.35;;;11.90;;
61385;SDS011;47256;18.904;-99.054;2024-03-17T12:37:47;41.15;;;15.70;;
61385;SDS011;47256;18.904;-99.054;2024-03-17T12:40:21;75.15;;;29.60;;
61385;SDS011;47256;18.904;-99.054;2024-03-17T12:42:49;39.78;;;15.38;;
61385;SDS011;47256;18.904;-99.054;2024-03-17T12:45:21;38.58;;;15.50;;
61385;SDS011;47256;18.904;-99.054;2024-03-17T12:47:49;35.22;;;13.35;;
61385;SDS011;47256;18.904;-99.054;2024-03-17T12:50:21;44.03;;;14.98;;
61385;SDS011;47256;18.904;-99.054;2024-03-17T12:52:55;34.22;;;13.30;;
61385;SDS011;47256;18.904;-99.054;2024-03-17T12:55:23;41.78;;;17.05;;
61385;SDS011;47256;18.904;-99.054;2024-03-17T12:58:09;59.75;;;19.25;;
61385;SDS011;47256;18.904;-99.054;2024-03-17T13:01:06;63.20;;;20.08;;
61385;SDS011;47256;18.904;-99.054;2024-03-17T13:03:39;50.58;;;19.00;;
61385;SDS011;47256;18.904;-99.054;2024-03-17T13:06:21;38.85;;;15.48;;
61385;SDS011;47256;18.904;-99.054;2024-03-17T13:08:53;37.70;;;11.75;;
61385;SDS011;47256;18.904;-99.054;2024-03-17T13:11:21;39.10;;;12.63;;
61385;SDS011;47256;18.904;-99.054;2024-03-17T13:13:50;44.67;;;16.42;;
61385;SDS011;47256;18.904;-99.054;2024-03-17T13:16:17;117.70;;;51.65;;
61385;SDS011;47256;18.904;-99.054;2024-03-17T13:18:44;80.88;;;35.53;;
61385;SDS011;47256;18.904;-99.054;2024-03-17T13:21:17;73.28;;;34.38;;
61385;SDS011;47256;18.904;-99.054;2024-03-17T13:23:45;101.40;;;43.75;;
61385;SDS011;47256;18.904;-99.054;2024-03-17T13:26:15;149.10;;;59.15;;
61385;SDS011;47256;18.904;-99.054;2024-03-17T13:28:43;213.70;;;96.85;;
61385;SDS011;47256;18.904;-99.054;2024-03-17T13:31:10;219.45;;;104.95;;
61385;SDS011;47256;18.904;-99.054;2024-03-17T13:33:41;303.95;;;137.48;;
61385;SDS011;47256;18.904;-99.054;2024-03-17T13:36:07;262.38;;;124.75;;
61385;SDS011;47256;18.904;-99.054;2024-03-17T13:38:35;227.80;;;102.55;;
61385;SDS011;47256;18.904;-99.054;2024-03-17T13:41:05;165.40;;;72.18;;
61385;SDS011;47256;18.904;-99.054;2024-03-17T13:43:32;86.72;;;41.40;;
61385;SDS011;47256;18.904;-99.054;2024-03-17T13:46:03;103.07;;;47.13;;
61385;SDS011;47256;18.904;-99.054;2024-03-17T13:48:31;92.13;;;41.90;;
61385;SDS011;47256;18.904;-99.054;2024-03-17T13:51:04;62.00;;;29.48;;
61385;SDS011;47256;18.904;-99.054;2024-03-17T13:53:34;58.13;;;26.63;;
61385;SDS011;47256;18.904;-99.054;2024-03-17T13:56:08;55.80;;;25.90;;
61385;SDS011;47256;18.904;-99.054;2024-03-17T13:58:39;65.25;;;24.08;;
61385;SDS011;47256;18.904;-99.054;2024-03-17T14:01:07;59.05;;;24.42;;
61385;SDS011;47256;18.904;-99.054;2024-03-17T14:03:35;63.83;;;24.30;;
61385;SDS011;47256;18.904;-99.054;2024-03-17T14:06:06;54.88;;;21.65;;
61385;SDS011;47256;18.904;-99.054;2024-03-17T14:08:37;52.80;;;19.60;;
61385;SDS011;47256;18.904;-99.054;2024-03-17T14:11:04;49.15;;;17.63;;
61385;SDS011;47256;18.904;-99.054;2024-03-17T14:13:32;43.70;;;17.73;;
61385;SDS011;47256;18.904;-99.054;2024-03-17T14:16:03;35.30;;;15.45;;
61385;SDS011;47256;18.904;-99.054;2024-03-17T14:18:33;29.52;;;13.40;;
61385;SDS011;47256;18.904;-99.054;2024-03-17T14:21:06;28.77;;;13.80;;
61385;SDS011;47256;18.904;-99.054;2024-03-17T14:23:36;38.00;;;14.98;;
61385;SDS011;47256;18.904;-99.054;2024-03-17T14:26:04;25.95;;;14.57;;
61385;SDS011;47256;18.904;-99.054;2024-03-17T14:28:34;34.80;;;15.25;;
61385;SDS011;47256;18.904;-99.054;2024-03-17T14:31:05;56.30;;;26.33;;
61385;SDS011;47256;18.904;-99.054;2024-03-17T14:33:35;85.43;;;37.97;;
61385;SDS011;47256;18.904;-99.054;2024-03-17T14:36:03;46.95;;;24.08;;
61385;SDS011;47256;18.904;-99.054;2024-03-17T14:38:30;35.97;;;18.42;;
61385;SDS011;47256;18.904;-99.054;2024-03-17T14:40:59;33.40;;;17.35;;
61385;SDS011;47256;18.904;-99.054;2024-03-17T14:43:26;35.10;;;16.75;;